LZIB

Bratislava/M.R. Stefanik Airport

Airport
ICAO code
LZIB
IATA Code
BTS
Summary
ICAO Region
EUR
ICAO Territory
Location

Ivanka, Bratislava

Serving
Bratislava
Elevation
436 ft
Coordinates
48° 10' 12" N , 17° 12' 48" E
KCC
Metar
Observation
LZIB 280100Z 32013KT 9999 -SN FEW012 SCT032 OVC036 00/M03 Q1018 NOSIG
Station
Bratislava Ivanka
Date/Time
2023-01-28 01:00:00
Wind direction
320°
Wind speed
13 kts
Lowest cloud amount
few clouds
Temperature
0°C
Dew point
-3°C
Humidity
80%
QNH
1018 hPa
Weather condition
light snow

International airport serving capital of Slovakia.

Climatology

Humid continental climate (Köppen climate classification Dfa)

Runways

Designator Length Width Surface Rops
4/22 2900 60 CON Yes/Yes
13/31 3190 45 CON Yes/Yes

Airport map

Aerial View

SKYbrary Partners:

Safety knowledge contributed by: